Item Display Status Humidity-temperature Sensor

Elevation Above Sea Level: 3 m

 

Deployed Sensor

  • Serial Number: 61115664
  • NDBC Property Number: 36922
  • Start Date: 3/11/2014 (12:00:00 Z)
  • End Date: 4/30/2015 (19:35:00 Z)
Relative Humidity [%]     6 entries per hour
Showing data from 4/23/2015 (00:40:00 Z) to 4/22/2015 (00:00:01 Z)
Previous Next [ Day | 3-Days | 7-Days ]
First Last
Prev [ Day | 3-Days | 7-Days ] Next
First Last

Start Time:     :
End Time:     :     
Time (in GMT) :00 :50 :40 :30 :20 :10
Previous Next [ Day | 3-Days | 7-Days ]
First Last
Prev [ Day | 3-Days | 7-Days ] Next
First Last


123 => good data
MM => data is determined as missing
-- => data not received/configured
Back to Top Back to Top
4/23/2015 01:00 to 0:10 -- -- 76.29 75.85 76.11 75.42
4/23/2015 00:00 to 23:10 76.56 75.77 76.76 77.02 77.41 75.22
4/22/2015 23:00 to 22:10 74.14 75.54 74.63 75.30 75.54 75.95
4/22/2015 22:00 to 21:10 75.91 76.64 77.61 77.13 76.48 76.33
4/22/2015 21:00 to 20:10 78.10 78.26 78.12 78.59 78.34 78.34
4/22/2015 20:00 to 19:10 78.71 77.53 78.02 80.11 82.82 81.20
4/22/2015 19:00 to 18:10 79.82 79.86 79.92 80.11 80.23 80.05
4/22/2015 18:00 to 17:10 79.80 80.37 80.17 80.41 80.76 81.55
4/22/2015 17:00 to 16:10 81.99 82.44 83.17 81.79 81.89 82.54
4/22/2015 16:00 to 15:10 83.94 84.59 84.08 84.02 83.43 83.74
4/22/2015 15:00 to 14:10 84.51 84.85 85.22 85.68 85.85 85.44
4/22/2015 14:00 to 13:10 84.34 80.67 80.13 80.69 82.50 82.72
4/22/2015 13:00 to 12:10 80.55 80.92 82.68 85.42 86.27 86.41
4/22/2015 12:00 to 11:10 86.27 86.05 84.93 82.92 82.78 83.27
4/22/2015 11:00 to 10:10 84.02 83.84 84.55 84.73 85.18 86.68
4/22/2015 10:00 to 9:10 88.60 89.31 90.12 89.62 88.87 86.51
4/22/2015 09:00 to 8:10 84.75 80.78 79.96 79.88 79.94 80.17
4/22/2015 08:00 to 7:10 80.51 80.57 80.65 80.47 80.49 80.39
4/22/2015 07:00 to 6:10 80.33 80.31 80.21 80.15 80.61 80.43
4/22/2015 06:00 to 5:10 80.25 79.13 78.48 78.59 79.48 80.55
4/22/2015 05:00 to 4:10 83.11 83.45 83.03 82.15 80.78 81.22
4/22/2015 04:00 to 3:10 83.63 84.89 83.41 83.25 81.79 82.24
4/22/2015 03:00 to 2:10 83.23 84.38 82.40 79.17 80.17 81.44
4/22/2015 02:00 to 1:10 82.40 82.05 83.80 85.54 87.71 86.74
4/22/2015 01:00 to 0:10 84.32 77.08 75.14 74.00 72.99 73.17

 

 

 

Air Temperature [°C]     6 entries per hour
Showing data from 4/30/2015 (19:00:00 Z) to 4/29/2015 (00:00:01 Z)
Previous Next [ Day | 3-Days | 7-Days ]
First Last
Prev [ Day | 3-Days | 7-Days ] Next
First Last

Start Time:     :
End Time:     :     
Time (in GMT) :00 :50 :40 :30 :20 :10
Previous Next [ Day | 3-Days | 7-Days ]
First Last
Prev [ Day | 3-Days | 7-Days ] Next
First Last


123 => good data
MM => data is determined as missing
-- => data not received/configured
Back to Top Back to Top
4/30/2015 19:00 to 18:10 28.99 29.21 29.06 29.13 29.23 29.25
4/30/2015 18:00 to 17:10 29.19 29.16 29.40 29.29 29.36 29.18
4/30/2015 17:00 to 16:10 29.13 29.20 29.23 29.15 29.41 29.43
4/30/2015 16:00 to 15:10 29.14 29.04 28.93 28.94 28.85 28.95
4/30/2015 15:00 to 14:10 28.66 28.77 28.92 28.69 28.92 28.85
4/30/2015 14:00 to 13:10 28.66 28.77 28.63 28.77 28.86 28.51
4/30/2015 13:00 to 12:10 28.76 28.53 28.38 28.56 28.52 28.51
4/30/2015 12:00 to 11:10 28.40 28.52 28.48 28.75 28.58 28.59
4/30/2015 11:00 to 10:10 28.64 28.68 28.50 28.59 28.48 28.48
4/30/2015 10:00 to 9:10 28.72 28.57 28.68 28.65 28.70 28.67
4/30/2015 09:00 to 8:10 -- -- -- -- -- --
4/30/2015 08:00 to 7:10 28.62 28.59 28.85 28.58 28.66 28.83
4/30/2015 07:00 to 6:10 28.66 28.76 28.88 28.86 28.80 28.70
4/30/2015 06:00 to 5:10 28.76 28.76 28.77 28.77 28.73 28.73
4/30/2015 05:00 to 4:10 28.83 28.64 28.78 28.78 28.69 28.66
4/30/2015 04:00 to 3:10 28.68 28.56 28.70 28.80 28.74 28.78
4/30/2015 03:00 to 2:10 28.66 28.70 28.67 28.81 28.64 28.67
4/30/2015 02:00 to 1:10 28.68 28.85 28.61 28.69 28.70 28.79
4/30/2015 01:00 to 0:10 28.74 28.81 29.09 29.13 29.66 29.47
4/30/2015 00:00 to 23:10 29.57 29.01 29.48 29.50 29.35 29.30
4/29/2015 23:00 to 22:10 29.01 29.22 29.05 29.11 29.00 29.10
4/29/2015 22:00 to 21:10 28.98 28.96 28.93 28.85 28.89 28.81
4/29/2015 21:00 to 20:10 28.76 28.86 28.88 28.73 28.75 28.68
4/29/2015 20:00 to 19:10 28.68 28.72 28.79 28.72 28.66 28.74
4/29/2015 19:00 to 18:10 28.58 28.74 28.60 28.61 28.76 28.77
4/29/2015 18:00 to 17:10 28.69 28.61 28.51 28.52 28.53 28.61
4/29/2015 17:00 to 16:10 28.55 28.47 28.53 28.61 28.53 28.49
4/29/2015 16:00 to 15:10 28.65 28.41 28.50 28.75 28.37 28.57
4/29/2015 15:00 to 14:10 28.61 28.72 28.56 28.56 28.45 28.41
4/29/2015 14:00 to 13:10 28.07 28.16 28.01 27.92 27.95 27.96
4/29/2015 13:00 to 12:10 27.96 27.97 27.86 27.84 27.73 27.84
4/29/2015 12:00 to 11:10 27.95 27.90 27.93 27.87 27.87 27.88
4/29/2015 11:00 to 10:10 27.88 27.92 27.83 27.88 27.97 27.80
4/29/2015 10:00 to 9:10 27.95 27.76 27.81 27.94 27.92 27.90
4/29/2015 09:00 to 8:10 28.05 28.13 27.96 28.03 28.00 28.13
4/29/2015 08:00 to 7:10 28.08 28.05 28.14 28.15 28.19 28.18
4/29/2015 07:00 to 6:10 28.21 28.19 28.15 28.25 28.21 28.38
4/29/2015 06:00 to 5:10 28.29 28.42 28.45 28.29 28.48 28.45
4/29/2015 05:00 to 4:10 28.37 28.31 28.33 28.49 28.35 28.32
4/29/2015 04:00 to 3:10 28.34 28.41 28.38 28.37 28.39 28.28
4/29/2015 03:00 to 2:10 28.32 28.33 28.34 28.34 28.38 28.34
4/29/2015 02:00 to 1:10 28.45 28.28 28.28 28.37 28.41 28.55
4/29/2015 01:00 to 0:10 28.45 28.60 28.65 28.92 29.05 28.60